createdAt,value
2023-02-13T00:02:48.529Z,23.70
2023-02-13T00:07:50.096Z,24.13
2023-02-13T00:12:51.577Z,24.15
2023-02-13T00:17:53.020Z,21.65
2023-02-13T00:22:54.456Z,21.92
2023-02-13T00:27:55.925Z,20.15
2023-02-13T00:32:57.462Z,20.70
2023-02-13T00:37:58.862Z,18.77
2023-02-13T00:43:00.320Z,18.17
2023-02-13T00:48:01.824Z,18.77
2023-02-13T00:53:03.240Z,19.15
2023-02-13T00:58:04.933Z,20.45
2023-02-13T01:03:06.868Z,14.77
2023-02-13T01:08:08.712Z,21.92
2023-02-13T01:13:11.176Z,20.10
2023-02-13T01:18:15.208Z,17.80
2023-02-13T01:23:16.615Z,19.13
2023-02-13T01:28:18.186Z,18.95
2023-02-13T01:33:19.877Z,18.75
2023-02-13T01:38:21.857Z,18.60
2023-02-13T01:43:24.546Z,19.88
2023-02-13T01:48:27.543Z,18.60
2023-02-13T01:53:35.725Z,16.00
2023-02-13T01:58:41.177Z,17.50
2023-02-13T02:03:49.621Z,14.50
2023-02-13T02:08:53.116Z,14.33
2023-02-13T02:13:56.043Z,16.65
2023-02-13T02:18:57.492Z,14.88
2023-02-13T02:24:34.186Z,17.42
2023-02-13T02:29:51.322Z,19.30
2023-02-13T02:35:06.449Z,18.10
2023-02-13T02:40:28.145Z,14.77
2023-02-13T02:45:52.869Z,16.95
2023-02-13T02:51:03.212Z,14.30
2023-02-13T02:56:14.597Z,17.25
2023-02-13T03:01:39.681Z,14.35
2023-02-13T03:06:49.530Z,14.13
2023-02-13T03:12:13.292Z,14.73
2023-02-13T03:17:35.681Z,15.73
2023-02-13T03:22:59.878Z,14.05
2023-02-13T03:28:41.098Z,15.07
2023-02-13T03:34:03.878Z,15.50
2023-02-13T03:39:29.594Z,15.57
2023-02-13T03:44:46.140Z,12.52
2023-02-13T03:50:09.096Z,13.35
2023-02-13T03:55:36.367Z,12.60
2023-02-13T04:00:46.080Z,17.88
2023-02-13T04:05:52.186Z,9.25
2023-02-13T04:11:00.302Z,11.95
2023-02-13T04:16:18.424Z,11.48
2023-02-13T04:21:20.006Z,13.32
2023-02-13T04:26:23.514Z,15.40
2023-02-13T04:31:25.085Z,14.05
2023-02-13T04:36:26.868Z,14.02
2023-02-13T04:41:28.267Z,17.33
2023-02-13T04:46:29.788Z,15.55
2023-02-13T04:51:31.197Z,15.02
2023-02-13T04:56:33.691Z,15.63
2023-02-13T05:01:35.144Z,17.73
2023-02-13T05:06:38.090Z,17.00
2023-02-13T05:11:39.571Z,13.88
2023-02-13T05:16:41.018Z,12.82
2023-02-13T05:22:01.428Z,15.55
2023-02-13T05:27:02.866Z,14.13
2023-02-13T05:32:04.562Z,15.25
2023-02-13T05:37:06.005Z,13.30
2023-02-13T05:42:07.484Z,14.07
2023-02-13T05:47:08.894Z,18.40
2023-02-13T05:52:10.425Z,15.35
2023-02-13T05:57:11.848Z,20.48
2023-02-13T06:02:13.295Z,15.40
2023-02-13T06:07:14.707Z,14.68
2023-02-13T06:12:16.219Z,13.18
2023-02-13T06:17:17.644Z,14.70
2023-02-13T06:22:19.085Z,12.15
2023-02-13T06:27:20.539Z,14.48
2023-02-13T06:32:21.966Z,16.58
2023-02-13T06:37:23.374Z,11.90
2023-02-13T06:42:24.885Z,13.10
2023-02-13T06:47:26.466Z,11.70
2023-02-13T06:52:28.028Z,12.70
2023-02-13T06:57:33.003Z,14.80
2023-02-13T07:02:34.631Z,15.52
2023-02-13T07:07:37.527Z,12.65
2023-02-13T07:12:39.555Z,15.60
2023-02-13T07:17:40.988Z,14.52
2023-02-13T07:22:42.435Z,12.98
2023-02-13T07:27:43.874Z,15.38
2023-02-13T07:32:45.342Z,15.75
2023-02-13T07:37:46.806Z,13.55
2023-02-13T07:42:48.419Z,15.45
2023-02-13T07:47:49.847Z,16.83
2023-02-13T07:53:02.487Z,14.23
2023-02-13T07:58:03.956Z,16.60
2023-02-13T08:03:05.410Z,16.60
2023-02-13T08:08:07.017Z,15.55
2023-02-13T08:13:09.655Z,16.42
2023-02-13T08:18:11.259Z,17.67
2023-02-13T08:23:12.882Z,16.05
2023-02-13T08:28:14.444Z,18.38
2023-02-13T08:33:15.889Z,22.08
2023-02-13T08:38:17.316Z,17.60
2023-02-13T08:43:18.709Z,20.15
2023-02-13T08:48:20.128Z,26.10
2023-02-13T08:53:22.170Z,25.83
2023-02-13T08:58:24.390Z,29.75
2023-02-13T09:03:25.889Z,27.00
2023-02-13T09:08:27.420Z,24.88
2023-02-13T09:13:30.624Z,26.75
2023-02-13T09:18:32.455Z,23.17
2023-02-13T09:23:36.503Z,21.55
2023-02-13T09:28:38.676Z,18.15
2023-02-13T09:33:40.533Z,12.73
2023-02-13T09:38:44.099Z,7.72
2023-02-13T09:43:50.903Z,7.22
2023-02-13T09:48:56.296Z,7.40
2023-02-13T09:54:03.635Z,4.20
2023-02-13T09:59:42.575Z,4.93
2023-02-13T10:04:56.547Z,4.13
2023-02-13T10:10:20.810Z,3.53
2023-02-13T10:15:48.576Z,2.80
2023-02-13T10:20:57.379Z,4.95
2023-02-13T10:26:17.139Z,3.15
2023-02-13T10:31:23.775Z,3.10
2023-02-13T10:36:33.901Z,5.97
2023-02-13T10:42:07.855Z,7.35
2023-02-13T10:47:31.710Z,4.50
2023-02-13T10:53:11.173Z,5.28
2023-02-13T10:58:18.402Z,6.50
2023-02-13T11:03:27.060Z,3.42
2023-02-13T11:08:44.403Z,4.40
2023-02-13T11:13:45.850Z,8.18
2023-02-13T11:18:50.622Z,7.38
2023-02-13T11:23:54.544Z,5.88
2023-02-13T11:29:15.891Z,4.30
2023-02-13T11:34:27.264Z,4.53
2023-02-13T11:39:28.719Z,5.32
2023-02-13T11:44:32.387Z,5.60
2023-02-13T11:49:36.778Z,5.45
2023-02-13T11:54:45.546Z,4.82
2023-02-13T11:59:50.151Z,9.68
2023-02-13T12:04:54.889Z,3.65
2023-02-13T12:10:17.411Z,5.70
2023-02-13T12:15:22.920Z,5.07
2023-02-13T12:20:29.031Z,6.95
2023-02-13T12:26:12.077Z,5.53
2023-02-13T12:31:39.432Z,7.47
2023-02-13T12:37:20.240Z,5.50
2023-02-13T12:42:36.624Z,7.57
2023-02-13T12:47:54.095Z,5.00
2023-02-13T12:53:28.376Z,5.95
2023-02-13T12:58:40.719Z,5.28
2023-02-13T13:04:05.348Z,3.75
2023-02-13T13:09:57.698Z,5.65
2023-02-13T13:15:01.875Z,6.90
2023-02-13T13:20:15.548Z,3.97
2023-02-13T13:25:22.972Z,3.97
2023-02-13T13:30:30.257Z,4.43
2023-02-13T13:35:34.580Z,4.85
2023-02-13T13:40:45.441Z,3.35
2023-02-13T13:46:12.224Z,3.25
2023-02-13T13:51:19.606Z,4.25
2023-02-13T13:56:21.027Z,11.40
2023-02-13T14:01:29.770Z,3.42
2023-02-13T14:06:46.491Z,3.63
2023-02-13T14:11:49.242Z,4.15
2023-02-13T14:16:50.881Z,4.88
2023-02-13T14:21:53.637Z,4.32
2023-02-13T14:27:05.324Z,3.53
2023-02-13T14:32:16.499Z,4.00
2023-02-13T14:37:27.270Z,5.50
2023-02-13T14:42:30.390Z,5.47
2023-02-13T14:47:37.090Z,6.45
2023-02-13T14:52:43.143Z,8.18
2023-02-13T14:57:49.208Z,7.70
2023-02-13T15:02:59.500Z,8.15
2023-02-13T15:08:18.121Z,7.28
2023-02-13T15:13:34.750Z,5.77
2023-02-13T15:18:47.864Z,6.72
2023-02-13T15:23:57.416Z,7.95
2023-02-13T15:29:01.931Z,6.20
2023-02-13T15:34:03.516Z,10.43
2023-02-13T15:39:09.812Z,12.68
2023-02-13T15:44:19.909Z,11.38
2023-02-13T15:49:24.748Z,18.20
2023-02-13T15:54:31.677Z,21.85
2023-02-13T15:59:39.080Z,23.08
2023-02-13T16:04:42.435Z,16.00
2023-02-13T16:09:44.031Z,12.68
2023-02-13T16:14:51.964Z,13.05
2023-02-13T16:20:11.581Z,19.75
2023-02-13T16:25:13.633Z,16.20
2023-02-13T16:30:27.310Z,16.80
2023-02-13T16:35:31.168Z,18.95
2023-02-13T16:40:35.328Z,18.70
2023-02-13T16:45:37.184Z,20.27
2023-02-13T16:50:38.649Z,20.23
2023-02-13T16:55:40.237Z,22.27
2023-02-13T17:00:41.713Z,24.55
2023-02-13T17:05:43.176Z,22.30
2023-02-13T17:11:02.377Z,23.58
2023-02-13T17:16:03.973Z,25.60
2023-02-13T17:21:05.928Z,26.42
2023-02-13T17:26:07.361Z,21.75
2023-02-13T17:31:12.166Z,22.85
2023-02-13T17:36:14.495Z,28.77
2023-02-13T17:41:16.140Z,23.38
2023-02-13T17:46:17.736Z,20.38
2023-02-13T17:51:19.215Z,20.15
2023-02-13T17:56:20.659Z,19.27
2023-02-13T18:01:22.111Z,17.02
2023-02-13T18:06:23.603Z,22.20
2023-02-13T18:11:25.009Z,20.85
2023-02-13T18:16:26.450Z,21.38
2023-02-13T18:21:28.098Z,17.83
2023-02-13T18:26:29.526Z,17.65
2023-02-13T18:31:31.154Z,16.45
2023-02-13T18:36:32.590Z,19.95
2023-02-13T18:41:34.022Z,16.50
2023-02-13T18:46:35.860Z,14.80
2023-02-13T18:51:37.327Z,15.65
2023-02-13T18:56:38.840Z,15.55
2023-02-13T19:01:40.774Z,12.10
2023-02-13T19:06:43.668Z,15.18
2023-02-13T19:11:45.601Z,18.23
2023-02-13T19:16:47.037Z,15.38
2023-02-13T19:21:48.629Z,15.93
2023-02-13T19:26:50.107Z,18.23
2023-02-13T19:31:51.549Z,17.42
2023-02-13T19:36:53.074Z,15.60
2023-02-13T19:41:54.541Z,15.65
2023-02-13T19:46:55.973Z,16.05
2023-02-13T19:51:57.412Z,15.73
2023-02-13T19:57:02.519Z,16.00
2023-02-13T20:02:04.064Z,14.90
2023-02-13T20:07:07.600Z,17.85
2023-02-13T20:12:09.031Z,19.58
2023-02-13T20:17:10.447Z,14.38
2023-02-13T20:22:16.436Z,13.52
2023-02-13T20:27:17.855Z,15.90
2023-02-13T20:32:19.327Z,15.30
2023-02-13T20:37:20.785Z,13.98
2023-02-13T20:42:22.234Z,17.35
2023-02-13T20:47:23.654Z,16.23
2023-02-13T20:52:25.113Z,16.40
2023-02-13T20:57:26.910Z,17.02
2023-02-13T21:02:28.356Z,17.17
2023-02-13T21:07:31.653Z,15.95
2023-02-13T21:12:33.268Z,18.38
2023-02-13T21:17:34.671Z,19.55
2023-02-13T21:22:36.152Z,20.35
2023-02-13T21:27:37.610Z,19.83
2023-02-13T21:32:39.501Z,19.80
2023-02-13T21:37:41.016Z,19.63
2023-02-13T21:42:42.968Z,18.85
2023-02-13T21:47:46.962Z,19.77
2023-02-13T21:52:48.818Z,21.00
2023-02-13T21:57:50.265Z,20.70
2023-02-13T22:02:51.779Z,22.00
2023-02-13T22:08:22.447Z,21.95
2023-02-13T22:13:25.101Z,21.48
2023-02-13T22:18:26.639Z,19.65
2023-02-13T22:23:28.094Z,26.13
2023-02-13T22:28:29.919Z,22.45
2023-02-13T22:33:34.013Z,21.40
2023-02-13T22:38:37.498Z,19.60
2023-02-13T22:43:39.734Z,21.00
2023-02-13T22:48:44.324Z,22.00
2023-02-13T22:53:46.340Z,19.63
2023-02-13T22:58:47.812Z,19.15
2023-02-13T23:03:49.661Z,18.42
2023-02-13T23:08:55.200Z,19.67
2023-02-13T23:13:58.132Z,23.48
2023-02-13T23:18:59.574Z,19.85
2023-02-13T23:24:01.017Z,20.75
2023-02-13T23:29:02.493Z,20.38
2023-02-13T23:34:04.022Z,18.55
2023-02-13T23:39:05.500Z,19.30
2023-02-13T23:44:07.014Z,20.30
2023-02-13T23:49:08.484Z,19.98
2023-02-13T23:54:14.304Z,18.77
2023-02-13T23:59:16.724Z,23.80
